Time;durP1;ratioP1;P1;durP2;ratioP2;P2;SDS_P1;SDS_P2;PMS_P1;PMS_P2;Temp;Humidity;BMP_temperature;BMP_pressure;BME280_temperature;BME280_humidity;BME280_pressure;Samples;Min_cycle;Max_cycle;Signal;HPM_P1;HPM_P2
2023/09/04 00:02:06;;;;;;;2.33;2.13;;;;;;;14.51;91.92;102655.06;5013936;28;20021;-88
2023/09/04 00:04:31;;;;;;;1.70;1.60;;;;;;;14.51;90.50;102662.91;5013917;28;20029;-88
2023/09/04 00:06:56;;;;;;;2.23;1.90;;;;;;;14.48;90.05;102665.50;5014396;28;20390;-88
2023/09/04 00:09:22;;;;;;;2.00;1.87;;;;;;;14.47;90.39;102651.56;5013630;28;20033;-88
2023/09/04 00:11:48;;;;;;;1.93;1.80;;;;;;;14.42;89.90;102650.72;5013720;28;20025;-88
2023/09/04 00:14:15;;;;;;;1.90;1.80;;;;;;;14.42;90.19;102652.44;5014148;28;20056;-89
2023/09/04 00:16:42;;;;;;;2.17;1.92;;;;;;;14.40;89.78;102651.63;5014450;28;20145;-88
2023/09/04 00:19:07;;;;;;;2.10;1.90;;;;;;;14.36;90.39;102645.50;5013433;28;20025;-87
2023/09/04 00:21:32;;;;;;;2.00;1.90;;;;;;;14.33;90.42;102640.31;5014021;28;20080;-87
2023/09/04 00:23:58;;;;;;;1.83;1.73;;;;;;;14.30;90.23;102641.16;5013656;28;20049;-87
2023/09/04 00:26:23;;;;;;;2.13;1.90;;;;;;;14.24;90.37;102635.97;5013245;28;20037;-88
2023/09/04 00:28:48;;;;;;;2.10;1.90;;;;;;;14.18;90.62;102636.84;5013918;28;20030;-88
2023/09/04 00:31:14;;;;;;;1.80;1.70;;;;;;;14.09;91.22;102629.03;5014463;28;20026;-88
2023/09/04 00:33:39;;;;;;;2.00;1.90;;;;;;;14.14;90.61;102642.06;5014177;28;20076;-88
2023/09/04 00:36:05;;;;;;;1.90;1.80;;;;;;;14.01;90.49;102634.25;5014378;28;20419;-88
2023/09/04 00:38:30;;;;;;;1.90;1.80;;;;;;;14.07;90.92;102645.56;5014763;28;20526;-88
2023/09/04 00:40:55;;;;;;;2.83;2.03;;;;;;;14.01;90.80;102639.47;5013568;28;20030;-87
2023/09/04 00:43:21;;;;;;;2.13;1.90;;;;;;;13.99;90.95;102646.44;5013718;28;20355;-88
2023/09/04 00:45:46;;;;;;;2.63;2.20;;;;;;;13.90;90.80;102636.84;5013695;28;20038;-89
2023/09/04 00:48:13;;;;;;;2.10;1.90;;;;;;;13.89;90.88;102642.97;5012845;28;20041;-87
2023/09/04 00:50:40;;;;;;;2.20;2.00;;;;;;;13.88;91.04;102648.19;5013619;28;20022;-88
2023/09/04 00:53:08;;;;;;;2.20;2.00;;;;;;;13.83;90.87;102640.34;5013809;28;20022;-87
2023/09/04 00:55:34;;;;;;;3.22;2.30;;;;;;;13.80;91.22;102642.94;5013292;28;20198;-88
2023/09/04 00:58:00;;;;;;;3.13;2.30;;;;;;;13.76;90.90;102638.63;5013918;28;20038;-88
2023/09/04 01:00:27;;;;;;;2.40;2.20;;;;;;;13.75;91.24;102645.56;5013052;28;20084;-88
2023/09/04 01:02:53;;;;;;;2.30;2.10;;;;;;;13.71;91.06;102641.22;5014207;28;20780;-88
2023/09/04 01:05:18;;;;;;;2.80;2.40;;;;;;;13.69;91.14;102644.69;5016452;28;20022;-88
2023/09/04 01:07:44;;;;;;;2.63;2.40;;;;;;;13.65;91.16;102640.34;5016862;28;20018;-88
2023/09/04 01:10:11;;;;;;;3.80;2.63;;;;;;;13.64;91.39;102647.31;5017300;28;20026;-88
2023/09/04 01:12:54;;;;;;;3.70;2.70;;;;;;;13.59;91.38;102641.22;5017645;28;20049;-88
2023/09/04 01:15:20;;;;;;;2.90;2.50;;;;;;;13.57;91.47;102645.56;5016540;28;20025;-88
2023/09/04 01:17:46;;;;;;;2.43;2.23;;;;;;;13.54;91.52;102645.56;5017197;28;20442;-88
2023/09/04 01:20:22;;;;;;;2.47;2.28;;;;;;;13.48;92.71;102646.41;5027682;23;20077;-88
2023/09/04 01:22:48;;;;;;;2.60;2.33;;;;;;;13.43;91.90;102641.19;5036317;28;20449;-88
2023/09/04 01:25:15;;;;;;;2.47;2.27;;;;;;;13.41;91.79;102644.69;5036445;28;20021;-88
2023/09/04 01:27:43;;;;;;;;;;;;;;;13.38;92.69;102636.81;5037288;28;20029;-88
2023/09/04 01:30:21;;;;;;;2.65;2.30;;;;;;;13.36;93.12;102642.03;5033804;22;20382;-88
2023/09/04 01:32:58;;;;;;;2.95;2.25;;;;;;;13.35;92.83;102637.69;5017780;28;20052;-87
2023/09/04 01:35:25;;;;;;;4.32;3.15;;;;;;;13.37;97.19;102638.56;5016396;28;20033;-87
2023/09/04 01:37:51;;;;;;;4.95;3.50;;;;;;;13.36;98.26;102642.03;5016502;28;20037;-88
2023/09/04 01:40:16;;;;;;;4.50;3.17;;;;;;;13.37;94.94;102640.28;5017030;28;20030;-87
2023/09/04 01:42:41;;;;;;;3.43;2.90;;;;;;;13.37;94.76;102633.34;5015951;28;20033;-87
2023/09/04 01:45:07;;;;;;;3.20;2.60;;;;;;;13.40;93.98;102637.72;5016599;28;20029;-87
2023/09/04 01:47:33;;;;;;;2.40;2.20;;;;;;;13.37;93.98;102628.13;5016656;28;20080;-87
2023/09/04 01:49:58;;;;;;;3.93;2.63;;;;;;;13.40;93.93;102630.75;5015909;28;20048;-87
2023/09/04 01:52:23;;;;;;;2.60;2.20;;;;;;;13.39;93.86;102618.59;5015880;28;20033;-88
2023/09/04 01:54:49;;;;;;;2.60;2.40;;;;;;;13.37;93.91;102624.63;5016150;28;20065;-88
2023/09/04 01:57:16;;;;;;;3.10;2.50;;;;;;;13.37;93.13;102619.41;5015523;28;20032;-88
2023/09/04 01:59:41;;;;;;;3.65;2.72;;;;;;;13.41;93.55;102626.41;5016476;28;20037;-88
2023/09/04 02:02:06;;;;;;;3.00;2.60;;;;;;;13.37;93.37;102630.72;5015808;28;20034;-88
2023/09/04 02:04:33;;;;;;;3.20;2.70;;;;;;;13.35;93.05;102632.47;5015708;28;20037;-88
2023/09/04 02:07:00;;;;;;;2.92;2.60;;;;;;;13.31;93.23;102629.84;5015845;28;20030;-88
2023/09/04 02:09:26;;;;;;;3.35;2.60;;;;;;;13.23;93.37;102616.78;5016306;28;20096;-88
2023/09/04 02:11:54;;;;;;;3.70;2.80;;;;;;;13.24;93.24;102629.81;5015504;28;20030;-88
2023/09/04 02:14:31;;;;;;;3.45;2.83;;;;;;;13.19;93.21;102625.47;5016047;28;20110;-88
2023/09/04 02:16:57;;;;;;;4.32;3.05;;;;;;;13.17;93.59;102616.78;5014501;28;20030;-88
2023/09/04 02:19:22;;;;;;;3.70;2.93;;;;;;;13.07;93.42;102602.84;5014929;28;20033;-88
2023/09/04 02:21:50;;;;;;;3.43;2.90;;;;;;;13.07;93.37;102615.88;5016334;28;20537;-88
2023/09/04 02:24:16;;;;;;;4.00;2.90;;;;;;;13.02;93.36;102604.56;5015651;28;20112;-88
2023/09/04 02:26:41;;;;;;;3.20;2.83;;;;;;;13.01;93.43;102605.44;5015296;28;20046;-88
2023/09/04 02:29:06;;;;;;;4.10;3.10;;;;;;;13.03;93.29;102603.69;5016048;28;20018;-88
2023/09/04 02:31:32;;;;;;;3.83;3.00;;;;;;;12.99;93.53;102605.44;4995905;28;20034;-88
2023/09/04 02:33:57;;;;;;;2.97;2.60;;;;;;;12.91;94.14;102599.34;4995426;28;20176;-88
2023/09/04 02:36:23;;;;;;;3.30;2.50;;;;;;;12.88;93.62;102599.31;4995920;28;20040;-88
2023/09/04 02:38:48;;;;;;;3.33;2.80;;;;;;;12.82;94.00;102601.06;4995796;28;20030;-87
2023/09/04 02:41:14;;;;;;;2.80;2.47;;;;;;;12.77;93.89;102594.09;4996401;28;20124;-87
2023/09/04 02:43:40;;;;;;;3.77;2.50;;;;;;;12.80;94.00;102604.50;4995982;28;20023;-87
2023/09/04 02:46:05;;;;;;;4.45;2.83;;;;;;;12.77;93.91;102610.56;4995207;28;20030;-88
2023/09/04 02:48:30;;;;;;;3.13;2.73;;;;;;;12.70;94.07;102598.41;4996253;28;20073;-88
2023/09/04 02:50:58;;;;;;;3.03;2.60;;;;;;;12.70;93.96;102602.72;4996574;28;20030;-88
2023/09/04 02:53:27;;;;;;;2.83;2.42;;;;;;;12.63;94.18;102604.44;4995665;28;20018;-88
2023/09/04 02:55:52;;;;;;;2.80;2.42;;;;;;;12.54;94.14;102594.88;4995339;28;20490;-88
2023/09/04 02:58:18;;;;;;;2.70;2.30;;;;;;;12.54;94.26;102600.06;4995885;28;20054;-88
2023/09/04 03:00:43;;;;;;;2.47;2.27;;;;;;;12.47;94.68;102586.16;4995126;28;20372;-88
2023/09/04 03:03:09;;;;;;;2.57;2.27;;;;;;;12.49;94.82;102589.63;4995243;28;20529;-87
2023/09/04 03:05:34;;;;;;;2.13;1.93;;;;;;;12.51;95.60;102602.66;4996009;28;20026;-89
2023/09/04 03:07:59;;;;;;;2.20;2.00;;;;;;;12.52;94.86;102593.97;4995131;28;20026;-88
2023/09/04 03:10:24;;;;;;;4.87;3.40;;;;;;;12.51;100.00;102592.25;4995347;28;20465;-88
2023/09/04 03:12:50;;;;;;;15.87;7.70;;;;;;;12.47;100.00;102583.56;4996234;28;20364;-89
2023/09/04 03:15:15;;;;;;;12.67;6.90;;;;;;;12.49;100.00;102589.63;4995018;28;20050;-89
2023/09/04 03:17:41;;;;;;;11.67;7.17;;;;;;;12.44;100.00;102575.72;4995300;28;20045;-89
2023/09/04 03:20:09;;;;;;;13.00;7.38;;;;;;;12.44;100.00;102578.31;4995633;28;20037;-88
2023/09/04 03:22:34;;;;;;;17.73;10.32;;;;;;;12.34;100.00;102573.94;4994636;28;20097;-88
2023/09/04 03:25:00;;;;;;;17.07;9.80;;;;;;;12.29;100.00;102563.50;4995029;28;20128;-88
2023/09/04 03:27:27;;;;;;;17.58;9.93;;;;;;;12.32;100.00;102565.22;4994846;28;20093;-89
2023/09/04 03:29:52;;;;;;;17.45;9.55;;;;;;;12.30;100.00;102569.56;5000827;28;20506;-89
2023/09/04 03:32:17;;;;;;;19.50;11.27;;;;;;;12.22;100.00;102566.06;5014679;28;20022;-89
2023/09/04 03:34:43;;;;;;;18.43;10.10;;;;;;;12.21;100.00;102570.41;5014977;28;20121;-89
2023/09/04 03:37:08;;;;;;;19.20;11.73;;;;;;;12.13;100.00;102552.13;5014403;28;20092;-89
2023/09/04 03:39:37;;;;;;;20.73;12.83;;;;;;;12.13;100.00;102559.94;5014938;28;20046;-90
2023/09/04 03:42:06;;;;;;;19.70;12.43;;;;;;;12.14;100.00;102564.28;5014735;28;20026;-88
2023/09/04 03:44:32;;;;;;;18.45;11.13;;;;;;;12.13;100.00;102559.06;5010202;28;20049;-89
2023/09/04 03:46:57;;;;;;;17.33;9.97;;;;;;;12.16;100.00;102567.75;5014698;28;20458;-88
2023/09/04 03:49:22;;;;;;;18.40;10.77;;;;;;;12.15;100.00;102557.34;5013593;28;20402;-88
2023/09/04 03:51:48;;;;;;;19.20;11.17;;;;;;;12.14;100.00;102556.47;5014871;28;20033;-90
2023/09/04 03:54:15;;;;;;;17.17;9.50;;;;;;;12.19;100.00;102562.56;5014645;28;20022;-88
2023/09/04 03:56:41;;;;;;;19.13;10.70;;;;;;;12.16;100.00;102557.34;5013843;28;20033;-89
2023/09/04 03:59:06;;;;;;;19.37;11.00;;;;;;;12.24;100.00;102556.53;5014451;28;20030;-89
2023/09/04 04:01:33;;;;;;;18.43;10.60;;;;;;;12.19;100.00;102552.16;5014363;28;20030;-89
2023/09/04 04:03:59;;;;;;;17.60;9.90;;;;;;;12.20;100.00;102553.91;5014208;28;20030;-89
2023/09/04 04:06:25;;;;;;;15.35;8.35;;;;;;;12.25;100.00;102551.31;5014037;28;20491;-89
2023/09/04 04:08:51;;;;;;;17.80;9.63;;;;;;;12.22;100.00;102548.69;5014611;28;20109;-89
2023/09/04 04:11:18;;;;;;;13.47;7.40;;;;;;;12.25;100.00;102548.72;5013959;28;20040;-89
2023/09/04 04:13:44;;;;;;;12.10;6.72;;;;;;;12.22;100.00;102547.84;5014420;28;20391;-89
2023/09/04 04:16:09;;;;;;;12.03;6.77;;;;;;;12.22;100.00;102537.41;5014156;28;20029;-90
2023/09/04 04:18:35;;;;;;;14.00;6.57;;;;;;;12.24;100.00;102544.38;5013893;28;20513;-89
2023/09/04 04:21:00;;;;;;;8.97;5.20;;;;;;;12.26;100.00;102552.19;5011928;28;20038;-86
2023/09/04 04:23:25;;;;;;;7.13;4.70;;;;;;;12.28;100.00;102551.34;5012494;28;20060;-87
2023/09/04 04:25:51;;;;;;;6.53;4.27;;;;;;;12.28;100.00;102553.06;5012866;28;20068;-90
2023/09/04 04:28:18;;;;;;;6.00;3.90;;;;;;;12.31;100.00;102553.06;5014078;28;20030;-89
2023/09/04 04:30:44;;;;;;;4.82;3.47;;;;;;;12.34;100.00;102555.69;5014137;28;20041;-90
2023/09/04 04:33:13;;;;;;;8.30;4.63;;;;;;;12.34;100.00;102548.75;5012562;28;20497;-87
2023/09/04 04:35:40;;;;;;;5.13;3.47;;;;;;;12.35;100.00;102545.28;5013548;28;20014;-86
2023/09/04 04:38:06;;;;;;;5.38;3.50;;;;;;;12.35;100.00;102547.88;5012975;28;20037;-87
2023/09/04 04:40:36;;;;;;;3.90;2.97;;;;;;;12.33;100.00;102549.59;5012319;28;20454;-86
2023/09/04 04:43:03;;;;;;;3.53;2.97;;;;;;;12.36;100.00;102551.38;5013284;28;20036;-87
2023/09/04 04:45:29;;;;;;;4.35;3.00;;;;;;;12.38;100.00;102546.16;5013465;28;20030;-86
2023/09/04 04:47:54;;;;;;;3.57;2.90;;;;;;;12.35;100.00;102549.63;5013340;28;20048;-86
2023/09/04 04:50:20;;;;;;;3.33;2.73;;;;;;;12.39;100.00;102555.72;5013555;28;20029;-86
2023/09/04 04:52:46;;;;;;;3.23;2.60;;;;;;;12.32;100.00;102553.09;5012830;28;20221;-86
2023/09/04 04:55:11;;;;;;;2.60;2.35;;;;;;;12.29;100.00;102544.38;5001441;28;20027;-87
2023/09/04 04:57:37;;;;;;;3.17;2.40;;;;;;;12.28;100.00;102540.03;4993634;28;20089;-87
2023/09/04 05:00:07;;;;;;;2.80;2.27;;;;;;;12.28;100.00;102545.25;4992451;28;20034;-87
2023/09/04 05:02:35;;;;;;;3.00;2.50;;;;;;;12.26;100.00;102536.59;4993570;28;20023;-87
2023/09/04 05:05:01;;;;;;;2.75;2.30;;;;;;;12.28;100.00;102545.25;4992859;28;20034;-87
2023/09/04 05:07:29;;;;;;;2.43;2.20;;;;;;;12.29;100.00;102547.00;4992744;28;20034;-87
2023/09/04 05:09:58;;;;;;;4.80;3.22;;;;;;;12.26;100.00;102545.25;4993531;28;20037;-88
2023/09/04 05:12:23;;;;;;;6.00;3.78;;;;;;;12.15;100.00;102532.19;4993199;28;20029;-87
2023/09/04 05:14:49;;;;;;;4.97;3.60;;;;;;;12.30;100.00;102546.13;4992628;28;20031;-88
2023/09/04 05:17:15;;;;;;;4.37;3.50;;;;;;;12.34;100.00;102543.53;4997176;28;20100;-86
2023/09/04 05:19:40;;;;;;;4.57;3.27;;;;;;;12.39;100.00;102553.97;5012016;28;20634;-86
2023/09/04 05:22:05;;;;;;;3.87;3.17;;;;;;;12.37;100.00;102542.72;5010327;28;20034;-87
2023/09/04 05:24:31;;;;;;;5.00;3.33;;;;;;;12.44;100.00;102541.00;5012248;28;20030;-87
2023/09/04 05:26:56;;;;;;;5.20;3.40;;;;;;;12.45;100.00;102532.31;5013170;28;20022;-87
2023/09/04 05:29:23;;;;;;;6.30;3.50;;;;;;;12.46;100.00;102528.84;5011717;28;20065;-87
2023/09/04 05:31:52;;;;;;;4.72;3.47;;;;;;;12.54;100.00;102548.00;5013169;28;20037;-87
2023/09/04 05:34:30;;;;;;;4.18;3.15;;;;;;;12.47;100.00;102531.47;5012290;28;20045;-87
2023/09/04 05:36:55;;;;;;;3.45;2.92;;;;;;;12.52;100.00;102540.16;5008857;28;20363;-87
2023/09/04 05:39:21;;;;;;;4.73;3.30;;;;;;;12.54;100.00;102537.56;5012409;28;20114;-87
2023/09/04 05:41:47;;;;;;;5.10;3.50;;;;;;;12.63;100.00;102550.63;5012502;28;20359;-87
2023/09/04 05:44:13;;;;;;;4.45;3.15;;;;;;;12.65;100.00;102554.09;5012804;28;20033;-87
2023/09/04 05:46:38;;;;;;;4.20;3.20;;;;;;;12.68;100.00;102542.81;5011860;28;20128;-87
2023/09/04 05:49:03;;;;;;;3.70;2.80;;;;;;;12.70;100.00;102554.13;5011714;28;20050;-87
2023/09/04 05:51:29;;;;;;;3.30;2.87;;;;;;;12.71;100.00;102555.88;5012409;28;20030;-87
2023/09/04 05:53:54;;;;;;;3.10;2.47;;;;;;;12.72;100.00;102556.72;5016239;28;20096;-87
2023/09/04 05:56:19;;;;;;;2.77;2.40;;;;;;;12.69;100.00;102552.38;5014743;28;20386;-87
2023/09/04 05:58:49;;;;;;;3.43;2.80;;;;;;;12.75;100.00;102549.78;5016248;28;20030;-87
2023/09/04 06:01:16;;;;;;;2.58;2.30;;;;;;;12.82;100.00;102563.69;5015478;28;20026;-86
2023/09/04 06:03:42;;;;;;;;;;;;;;;12.85;100.00;102555.00;5015283;28;20057;-90
2023/09/04 06:06:07;;;;;;;3.25;2.65;;;;;;;12.86;100.00;102556.75;5015876;28;19913;-87
2023/09/04 06:08:34;;;;;;;3.80;2.60;;;;;;;12.89;100.00;102560.22;5017200;28;20022;-91
2023/09/04 06:11:00;;;;;;;5.18;3.40;;;;;;;12.94;100.00;102561.13;5016063;28;20025;-91
2023/09/04 06:13:25;;;;;;;4.90;3.40;;;;;;;12.97;100.00;102553.31;5016396;28;20544;-85
2023/09/04 06:15:51;;;;;;;4.97;3.60;;;;;;;13.04;100.00;102559.41;5016617;28;20115;-92
2023/09/04 06:18:16;;;;;;;18.03;10.10;;;;;;;13.03;100.00;102554.19;5016267;28;20151;-91
2023/09/04 06:20:42;;;;;;;18.17;10.37;;;;;;;13.03;100.00;102547.25;5017105;28;20486;-92
2023/09/04 06:23:07;;;;;;;15.73;8.67;;;;;;;13.14;100.00;102555.06;5017032;28;20108;-85
2023/09/04 06:25:39;;;;;;;16.40;9.60;;;;;;;13.20;100.00;102556.81;5016339;28;20099;-91
2023/09/04 06:28:10;;;;;;;18.25;10.57;;;;;;;13.25;100.00;102553.34;5016156;28;20030;-91
2023/09/04 06:30:35;;;;;;;15.88;8.77;;;;;;;13.33;100.00;102553.34;5015927;28;20174;-92
2023/09/04 06:33:01;;;;;;;14.93;8.17;;;;;;;13.43;100.00;102552.53;5015635;28;20034;-92
2023/09/04 06:35:28;;;;;;;11.65;6.68;;;;;;;13.51;100.00;102552.53;5016599;28;20017;-92
2023/09/04 06:37:53;;;;;;;16.30;8.18;;;;;;;13.56;100.00;102549.91;5016471;28;20060;-92
2023/09/04 06:40:18;;;;;;;11.43;6.67;;;;;;;13.65;100.00;102562.94;5015678;28;20037;-92
2023/09/04 06:42:44;;;;;;;8.70;5.43;;;;;;;13.74;100.00;102562.94;5016780;28;20033;-92
2023/09/04 06:45:09;;;;;;;10.07;5.47;;;;;;;13.79;100.00;102549.03;5015338;28;20076;-93
2023/09/04 06:47:35;;;;;;;16.57;9.17;;;;;;;13.88;100.00;102552.50;5016029;28;20040;-93
2023/09/04 06:50:01;;;;;;;12.57;6.93;;;;;;;13.98;100.00;102549.88;5015456;28;20038;-88
2023/09/04 06:52:26;;;;;;;12.25;7.18;;;;;;;14.04;100.00;102553.34;5014370;28;20127;-88
2023/09/04 06:54:52;;;;;;;12.50;7.07;;;;;;;14.13;100.00;102546.34;5015626;28;20030;-90
2023/09/04 06:57:17;;;;;;;10.23;5.63;;;;;;;14.27;100.00;102546.28;5015384;28;20112;-91
2023/09/04 06:59:42;;;;;;;17.20;9.93;;;;;;;14.43;100.00;102541.88;5015250;28;20101;-90
2023/09/04 07:02:20;;;;;;;18.17;10.90;;;;;;;15.48;100.00;102546.47;5014758;28;20030;-89
2023/09/04 07:04:57;;;;;;;14.57;8.27;;;;;;;17.76;97.28;102543.47;5015825;28;20038;-90
2023/09/04 07:07:35;;;;;;;12.18;6.60;;;;;;;19.79;95.30;102543.34;5014926;28;20029;-91
2023/09/04 07:10:05;;;;;;;8.90;5.60;;;;;;;21.42;78.44;102556.03;5015486;28;20026;-84
2023/09/04 07:12:33;;;;;;;8.82;5.18;;;;;;;22.80;82.70;102550.19;5014295;28;20022;-80
2023/09/04 07:14:58;;;;;;;8.52;5.13;;;;;;;23.59;74.06;102552.25;5014918;28;20082;-90
2023/09/04 07:17:23;;;;;;;5.60;3.80;;;;;;;23.80;73.37;102553.09;5014751;28;20116;-91
2023/09/04 07:19:48;;;;;;;6.00;3.70;;;;;;;23.46;73.36;102543.13;5015423;28;20025;-91
2023/09/04 07:22:14;;;;;;;6.80;4.20;;;;;;;22.71;76.57;102540.81;5013592;28;20117;-88
2023/09/04 07:24:39;;;;;;;12.87;7.60;;;;;;;21.26;73.94;102541.66;5013924;28;20018;-87
2023/09/04 07:27:04;;;;;;;10.60;6.07;;;;;;;20.60;78.74;102536.69;5014086;28;20084;-87
2023/09/04 07:29:30;;;;;;;7.77;5.23;;;;;;;19.92;79.03;102542.16;5013404;28;20124;-87
2023/09/04 07:31:56;;;;;;;8.57;5.43;;;;;;;19.42;81.75;102534.66;5015465;28;20084;-96
2023/09/04 07:34:33;;;;;;;8.60;5.40;;;;;;;19.03;84.38;102526.88;5015356;28;20069;-90
2023/09/04 07:36:59;;;;;;;8.38;4.93;;;;;;;18.82;86.11;102537.81;5015016;28;20041;-89
2023/09/04 07:39:46;;;;;;;7.40;4.40;;;;;;;18.66;86.68;102547.84;5013946;28;20544;-88
2023/09/04 07:42:12;;;;;;;7.28;4.55;;;;;;;18.45;86.71;102536.00;5013700;28;20087;-90
2023/09/04 07:44:37;;;;;;;6.77;4.60;;;;;;;18.36;87.23;102542.31;5014970;28;20026;-89
2023/09/04 07:47:03;;;;;;;5.27;3.83;;;;;;;18.27;87.69;102539.88;5014140;28;20018;-90
2023/09/04 07:49:28;;;;;;;6.17;4.20;;;;;;;18.29;88.55;102542.50;5013166;28;20054;-87
2023/09/04 07:51:53;;;;;;;7.60;5.00;;;;;;;18.34;89.37;102545.88;5014697;28;20104;-89
2023/09/04 07:54:19;;;;;;;10.80;6.40;;;;;;;18.35;85.94;102543.22;5013731;28;20026;-88
2023/09/04 07:56:45;;;;;;;8.30;5.22;;;;;;;18.34;88.58;102541.50;5013439;28;20026;-88
2023/09/04 07:59:19;;;;;;;8.43;5.00;;;;;;;18.45;89.07;102538.63;5013988;28;20033;-87
2023/09/04 08:01:45;;;;;;;9.02;5.32;;;;;;;18.47;86.33;102535.97;5013289;28;20029;-88
2023/09/04 08:04:12;;;;;;;12.33;6.90;;;;;;;18.46;86.56;102529.00;4997154;28;20053;-87
2023/09/04 08:06:37;;;;;;;10.40;6.15;;;;;;;18.51;86.74;102532.38;4993776;28;20096;-87
2023/09/04 08:09:02;;;;;;;7.70;5.10;;;;;;;18.60;88.00;102529.53;4993392;28;20023;-87
2023/09/04 08:11:28;;;;;;;13.47;7.30;;;;;;;18.67;87.29;102539.03;4993455;28;20022;-87
2023/09/04 08:13:53;;;;;;;10.13;6.37;;;;;;;18.77;86.49;102536.19;4996465;28;20557;-87
2023/09/04 08:16:19;;;;;;;12.53;7.13;;;;;;;18.79;86.52;102527.38;5013175;28;20033;-87
2023/09/04 08:18:44;;;;;;;8.47;5.53;;;;;;;18.89;87.49;102533.28;5012443;28;20470;-87
2023/09/04 08:21:09;;;;;;;13.97;7.47;;;;;;;18.90;85.08;102529.75;5012570;28;20108;-87
2023/09/04 08:23:35;;;;;;;11.00;5.83;;;;;;;19.00;85.81;102533.06;5012204;28;20029;-88
2023/09/04 08:26:02;;;;;;;8.73;5.00;;;;;;;19.08;85.17;102530.25;5012787;28;20443;-87
2023/09/04 08:28:28;;;;;;;14.30;7.53;;;;;;;19.11;84.81;102524.91;5013203;28;20061;-87
2023/09/04 08:30:54;;;;;;;11.93;6.80;;;;;;;19.16;81.87;102530.91;5012220;28;20073;-88
2023/09/04 08:33:20;;;;;;;10.85;6.28;;;;;;;19.22;84.05;102532.53;5012722;28;20038;-87
2023/09/04 08:38:13;;;;;;;10.60;6.15;;;;;;;19.39;82.83;102530.34;5047763;23;20423;-88
2023/09/04 08:40:40;;;;;;;14.82;8.10;;;;;;;19.41;78.95;102522.41;4993720;28;20408;-85
2023/09/04 08:43:09;;;;;;;13.57;6.95;;;;;;;19.51;78.12;102523.03;4992795;28;20030;-89
2023/09/04 08:45:41;;;;;;;11.80;6.70;;;;;;;19.54;81.07;102521.19;4992859;28;20023;-89
2023/09/04 08:48:08;;;;;;;8.75;5.32;;;;;;;19.73;82.07;102529.47;4993112;28;20030;-88
2023/09/04 08:50:36;;;;;;;8.55;5.05;;;;;;;19.85;80.21;102524.75;4989879;28;20027;-85
2023/09/04 08:53:03;;;;;;;11.40;6.35;;;;;;;19.96;76.00;102533.25;4994250;28;20058;-92
2023/09/04 08:55:29;;;;;;;8.90;5.60;;;;;;;20.06;80.24;102537.34;5007017;28;20026;-91
2023/09/04 08:57:54;;;;;;;5.80;3.90;;;;;;;20.22;81.22;102526.34;4998799;28;20076;-93
2023/09/04 09:00:20;;;;;;;5.90;3.72;;;;;;;20.36;80.39;102518.06;4993907;28;20038;-92
2023/09/04 09:02:45;;;;;;;8.43;4.60;;;;;;;20.48;73.31;102520.34;4994634;28;20026;-92
2023/09/04 09:05:13;;;;;;;6.97;4.33;;;;;;;20.59;77.87;102524.41;4981364;28;20031;-92
2023/09/04 09:07:40;;;;;;;4.68;3.70;;;;;;;20.71;76.03;102515.22;4994001;28;20022;-91
2023/09/04 09:10:08;;;;;;;4.45;3.40;;;;;;;20.87;76.16;102513.00;4993580;28;20039;-92
2023/09/04 09:12:34;;;;;;;4.53;3.63;;;;;;;21.01;74.55;102510.78;4990932;28;20360;-92
2023/09/04 09:14:59;;;;;;;4.27;3.53;;;;;;;21.13;75.09;102507.75;5036656;23;20060;-92
2023/09/04 09:17:25;;;;;;;4.70;3.40;;;;;;;21.26;77.09;102515.25;5032966;28;20033;-91
2023/09/04 09:19:51;;;;;;;4.00;3.13;;;;;;;21.33;72.85;102516.75;5033220;28;20489;-92
2023/09/04 09:22:18;;;;;;;4.30;2.90;;;;;;;21.47;77.28;102521.56;5033263;28;20017;-91
2023/09/04 09:24:50;;;;;;;5.20;3.42;;;;;;;21.57;70.44;102515.03;5033555;28;20025;-91
2023/09/04 09:27:17;;;;;;;4.72;3.63;;;;;;;21.64;69.52;102518.34;5036638;28;20137;-91
2023/09/04 09:29:42;;;;;;;7.32;4.00;;;;;;;21.69;71.46;102518.19;5017824;28;20053;-90
2023/09/04 09:32:09;;;;;;;10.30;5.77;;;;;;;21.60;69.84;102522.88;5024743;28;20068;-91
2023/09/04 09:34:34;;;;;;;6.13;4.00;;;;;;;21.71;72.78;102521.63;5036646;28;20480;-91
2023/09/04 09:37:00;;;;;;;5.10;3.80;;;;;;;21.87;71.83;102516.66;5037416;28;20030;-91
2023/09/04 09:39:26;;;;;;;4.88;3.00;;;;;;;22.05;73.37;102513.34;5036917;28;20481;-91
2023/09/04 09:41:51;;;;;;;6.43;3.53;;;;;;;22.21;70.70;102518.91;5037016;28;20026;-91
2023/09/04 09:44:17;;;;;;;4.33;3.10;;;;;;;22.29;72.19;102508.03;5037005;28;20600;-91
2023/09/04 09:46:42;;;;;;;8.05;3.60;;;;;;;22.45;69.70;102511.00;5039706;22;20046;-91
2023/09/04 09:49:07;;;;;;;7.10;4.17;;;;;;;22.47;64.90;102516.22;5015793;28;20030;-88
2023/09/04 09:51:37;;;;;;;8.18;4.07;;;;;;;22.56;67.93;102513.19;5034216;28;20049;-88
2023/09/04 09:54:05;;;;;;;4.90;3.63;;;;;;;22.64;67.99;102511.09;5035623;28;20112;-88
2023/09/04 09:56:30;;;;;;;4.03;3.00;;;;;;;22.77;70.71;102511.50;5035388;28;20037;-88
2023/09/04 09:58:56;;;;;;;3.90;3.17;;;;;;;22.93;70.44;102502.91;5030217;28;20038;-87
2023/09/04 10:01:21;;;;;;;2.90;2.60;;;;;;;23.06;69.21;102501.47;5013380;28;20022;-88
2023/09/04 10:03:47;;;;;;;5.47;3.93;;;;;;;23.15;67.39;102500.22;5015371;28;20033;-88
2023/09/04 10:06:34;;;;;;;7.80;4.10;;;;;;;23.08;63.19;102496.97;5034403;28;20117;-92
2023/09/04 10:09:00;;;;;;;7.32;3.63;;;;;;;23.20;66.30;102489.47;5015131;28;20370;-84
2023/09/04 10:11:27;;;;;;;;;;;;;;;23.42;66.23;102500.84;5015230;28;20018;-87
2023/09/04 10:14:03;;;;;;;3.65;3.10;;;;;;;23.48;67.04;102494.44;5015395;28;19916;-88
2023/09/04 10:16:32;;;;;;;;;;;;;;;23.52;61.58;102488.09;5015596;28;20112;-87
2023/09/04 10:19:00;;;;;;;5.03;3.13;;;;;;;23.55;65.49;102490.56;5015525;28;19913;-87
2023/09/04 10:21:32;;;;;;;5.10;3.30;;;;;;;23.69;65.53;102494.41;5015445;28;20084;-87
2023/09/04 10:24:02;;;;;;;3.38;2.90;;;;;;;23.74;64.53;102500.38;5014581;28;20459;-87
2023/09/04 10:26:35;;;;;;;4.80;3.40;;;;;;;23.75;63.18;102491.50;5015505;28;20036;-87
2023/09/04 10:29:08;;;;;;;3.75;3.00;;;;;;;23.83;63.13;102489.34;5015754;28;20030;-87
2023/09/04 10:31:35;;;;;;;3.80;2.90;;;;;;;23.88;63.70;102484.66;5014911;28;20022;-87
2023/09/04 10:34:01;;;;;;;3.50;2.80;;;;;;;23.94;64.04;102477.38;5015437;28;20033;-87
2023/09/04 10:36:30;;;;;;;5.30;3.10;;;;;;;23.92;57.38;102480.13;5014593;28;20386;-86
2023/09/04 10:38:58;;;;;;;5.32;3.50;;;;;;;23.90;59.64;102476.66;5014393;28;20022;-87
2023/09/04 10:41:25;;;;;;;4.47;3.20;;;;;;;23.88;63.12;102482.03;5015154;28;20080;-87
2023/09/04 10:43:50;;;;;;;4.40;3.15;;;;;;;23.78;57.72;102464.81;5015027;28;20026;-86
2023/09/04 10:46:16;;;;;;;4.75;3.28;;;;;;;23.82;64.23;102462.88;5013901;28;20025;-86
2023/09/04 10:48:43;;;;;;;4.13;2.92;;;;;;;23.90;61.45;102461.59;5015033;28;20030;-87
2023/09/04 10:51:27;;;;;;;;;;;;;;;23.94;59.65;102459.66;5014480;28;20030;-87
2023/09/04 10:53:54;;;;;;;3.40;2.67;;;;;;;23.97;58.91;102456.91;5010807;22;19921;-87
2023/09/04 10:56:19;;;;;;;3.72;2.95;;;;;;;23.69;53.37;102458.16;4994791;28;20047;-86
2023/09/04 10:58:58;;;;;;;4.33;2.93;;;;;;;23.80;58.58;102452.38;4994596;28;20113;-86
2023/09/04 11:01:30;;;;;;;2.90;2.60;;;;;;;23.94;59.98;102449.06;4994986;28;20026;-86
2023/09/04 11:03:56;;;;;;;3.83;2.60;;;;;;;24.09;58.24;102444.88;4995313;28;20030;-86
2023/09/04 11:06:21;;;;;;;3.37;2.60;;;;;;;24.18;58.58;102441.78;4994359;28;20161;-86
2023/09/04 11:08:51;;;;;;;3.47;2.73;;;;;;;24.20;58.13;102442.59;4995109;28;20489;-86
2023/09/04 11:11:23;;;;;;;2.88;2.50;;;;;;;24.24;59.08;102432.69;4994605;28;20104;-87
2023/09/04 11:14:01;;;;;;;3.80;2.97;;;;;;;24.32;53.28;102434.97;4994494;28;20387;-86
2023/09/04 11:16:31;;;;;;;3.65;2.80;;;;;;;24.43;57.72;102432.63;4994752;28;20054;-87
2023/09/04 11:19:16;;;;;;;4.22;2.88;;;;;;;24.52;56.91;102428.66;4995312;28;20427;-86
2023/09/04 11:21:45;;;;;;;3.30;2.67;;;;;;;24.64;55.96;102427.22;4994979;28;20027;-87
2023/09/04 11:24:10;;;;;;;2.97;2.67;;;;;;;24.74;54.65;102432.94;4994499;28;20030;-87